Time;durP1;ratioP1;P1;durP2;ratioP2;P2;SDS_P1;SDS_P2;PMS_P1;PMS_P2;Temp;Humidity;BMP_temperature;BMP_pressure;BME280_temperature;BME280_humidity;BME280_pressure;Samples;Min_cycle;Max_cycle;Signal;HPM_P1;HPM_P2
2022/08/13 00:02:08;;;;;;;2.90;2.70;;;;;;;17.33;79.87;96047.31;5003328;28;20282;-85
2022/08/13 00:04:35;;;;;;;4.13;2.50;;;;;;;17.39;80.13;96043.47;5001583;28;20274;-85
2022/08/13 00:07:07;;;;;;;2.53;2.23;;;;;;;17.39;82.05;96052.47;5025459;28;20210;-84
2022/08/13 00:09:38;;;;;;;3.53;2.47;;;;;;;17.36;81.22;96044.84;5004843;28;20204;-84
2022/08/13 00:14:53;;;;;;;4.30;2.30;;;;;;;17.53;79.42;96051.84;5005738;28;20214;-84
2022/08/13 00:17:20;;;;;;;2.97;2.40;;;;;;;17.64;77.64;96053.47;5001548;28;20228;-84
2022/08/13 00:19:51;;;;;;;2.47;2.13;;;;;;;17.66;77.62;96043.91;5003765;28;20317;-84
2022/08/13 00:22:19;;;;;;;3.40;2.60;;;;;;;17.74;76.75;96042.50;5007639;28;20211;-84
2022/08/13 00:24:48;;;;;;;2.63;2.43;;;;;;;17.79;77.07;96042.44;5006140;28;20207;-85
2022/08/13 00:27:15;;;;;;;5.30;2.37;;;;;;;17.78;75.34;96041.63;5004382;28;20243;-84
2022/08/13 00:29:42;;;;;;;2.57;2.30;;;;;;;17.77;75.24;96044.66;5013187;28;20246;-84
2022/08/13 00:32:09;;;;;;;3.77;2.63;;;;;;;17.68;75.91;96040.91;5005017;28;20290;-84
2022/08/13 00:34:36;;;;;;;2.80;2.50;;;;;;;17.75;76.32;96044.13;5006870;28;20205;-84
2022/08/13 00:37:03;;;;;;;4.73;2.50;;;;;;;17.75;76.98;96047.66;5004483;28;20263;-84
2022/08/13 00:39:31;;;;;;;6.00;2.33;;;;;;;17.71;76.66;96032.94;5005923;28;20288;-84
2022/08/13 00:41:59;;;;;;;2.50;2.30;;;;;;;17.67;76.89;96034.63;5008139;28;20262;-84
2022/08/13 00:44:31;;;;;;;2.40;2.20;;;;;;;17.54;77.91;96034.38;5008670;28;20215;-85
2022/08/13 00:49:40;;;;;;;2.73;2.40;;;;;;;17.40;78.92;96023.28;4998179;28;20266;-85
2022/08/13 00:52:10;;;;;;;4.23;2.50;;;;;;;17.37;79.12;96021.91;5006623;28;20309;-84
2022/08/13 00:54:40;;;;;;;3.77;2.40;;;;;;;17.37;79.01;96019.19;5003888;28;20211;-84
2022/08/13 00:57:10;;;;;;;3.20;2.73;;;;;;;17.36;79.33;96024.91;5004547;28;20235;-83
2022/08/13 00:59:37;;;;;;;4.40;2.60;;;;;;;17.37;79.63;96024.63;5024720;28;20219;-84
2022/08/13 01:02:05;;;;;;;3.87;2.57;;;;;;;17.29;79.76;96011.59;5006072;28;20219;-84
2022/08/13 01:04:33;;;;;;;3.97;2.60;;;;;;;17.20;79.50;96007.81;5008308;28;20235;-84
2022/08/13 01:07:01;;;;;;;4.17;2.63;;;;;;;17.19;79.65;96006.16;5007791;28;20200;-84
2022/08/13 01:09:30;;;;;;;3.33;2.17;;;;;;;17.30;79.29;96002.31;4997636;28;20219;-86
2022/08/13 01:12:00;;;;;;;3.03;2.60;;;;;;;17.33;79.27;95996.28;5005494;28;20226;-84
2022/08/13 01:14:32;;;;;;;3.30;2.40;;;;;;;17.21;78.92;95993.06;5006877;28;20219;-84
2022/08/13 01:17:04;;;;;;;2.70;2.40;;;;;;;17.16;79.36;95989.56;5001373;28;20199;-84
2022/08/13 01:19:33;;;;;;;2.80;2.30;;;;;;;17.13;79.19;95990.94;5007613;28;20391;-84
2022/08/13 01:22:02;;;;;;;2.13;1.93;;;;;;;17.09;78.80;95980.88;5003449;28;20274;-84
2022/08/13 01:24:30;;;;;;;6.53;2.70;;;;;;;17.18;78.98;95992.84;5003665;28;20229;-84
2022/08/13 01:26:58;;;;;;;3.13;2.40;;;;;;;17.23;78.52;95984.63;5006528;28;20225;-84
2022/08/13 01:29:26;;;;;;;4.13;2.50;;;;;;;17.27;78.21;95991.94;5004010;28;20302;-84
2022/08/13 01:31:54;;;;;;;2.97;2.40;;;;;;;17.28;77.78;95988.13;5006697;28;20271;-84
2022/08/13 01:34:22;;;;;;;2.97;2.50;;;;;;;17.35;77.32;95996.03;5025090;28;20208;-84
2022/08/13 01:36:50;;;;;;;3.00;2.40;;;;;;;17.28;77.50;96001.75;4995751;28;20226;-84
2022/08/13 01:39:19;;;;;;;2.97;2.67;;;;;;;17.25;77.34;95999.63;5001946;28;20211;-84
2022/08/13 01:41:47;;;;;;;4.40;2.50;;;;;;;17.25;78.07;95999.63;5004707;28;20247;-85
2022/08/13 01:44:15;;;;;;;2.70;2.50;;;;;;;17.15;79.06;95993.38;5003552;28;20216;-84
2022/08/13 01:52:14;;;;;;;3.53;2.50;;;;;;;17.16;78.03;95995.84;5000865;28;20291;-85
2022/08/13 01:54:44;;;;;;;2.83;2.20;;;;;;;17.29;76.80;95992.47;5021863;28;20519;-84
2022/08/13 01:57:11;;;;;;;3.77;2.30;;;;;;;17.35;76.83;95993.28;4994981;28;20239;-84
2022/08/13 01:59:41;;;;;;;2.57;2.30;;;;;;;17.36;77.58;95998.44;4993067;28;20216;-84
2022/08/13 02:02:10;;;;;;;2.47;2.17;;;;;;;17.36;77.50;96005.81;4999009;28;20455;-84
2022/08/13 02:04:39;;;;;;;2.60;2.40;;;;;;;17.38;78.13;96003.63;5001234;28;20204;-84
2022/08/13 02:07:08;;;;;;;3.87;2.30;;;;;;;17.42;78.22;95998.44;4998842;28;20327;-84
2022/08/13 02:09:36;;;;;;;4.17;2.57;;;;;;;17.35;77.57;95994.06;4997197;28;20203;-85
2022/08/13 02:12:05;;;;;;;2.40;2.20;;;;;;;17.26;76.33;95997.69;5003280;28;20203;-85
2022/08/13 02:14:34;;;;;;;3.53;2.27;;;;;;;17.26;76.25;95998.53;5005509;28;20216;-84
2022/08/13 02:17:24;;;;;;;3.87;2.40;;;;;;;17.34;77.09;95997.13;5005776;28;20257;-85
2022/08/13 02:19:53;;;;;;;2.30;2.10;;;;;;;17.36;77.57;96001.16;5005440;28;20210;-84
2022/08/13 02:22:22;;;;;;;5.93;2.90;;;;;;;17.29;78.01;95999.84;5002187;28;20236;-84
2022/08/13 02:24:52;;;;;;;2.67;2.43;;;;;;;17.34;78.45;96003.38;5003190;28;20266;-85
2022/08/13 02:27:24;;;;;;;2.53;2.33;;;;;;;17.22;79.28;96000.16;4989550;28;20219;-84
2022/08/13 02:29:53;;;;;;;3.27;2.53;;;;;;;17.21;79.71;96006.72;4988965;28;20220;-85
2022/08/13 02:32:23;;;;;;;3.73;2.67;;;;;;;17.20;79.86;96012.44;5013675;28;20269;-84
2022/08/13 02:34:51;;;;;;;3.53;2.60;;;;;;;17.09;80.73;96014.44;5007276;28;20210;-85
2022/08/13 02:37:21;;;;;;;2.57;2.33;;;;;;;17.10;81.72;96016.03;5005856;28;20203;-84
2022/08/13 02:39:49;;;;;;;2.33;2.00;;;;;;;16.96;82.68;96020.47;5005440;28;20218;-84
2022/08/13 02:42:16;;;;;;;3.50;2.50;;;;;;;16.82;83.39;96025.69;5002830;28;20224;-85
2022/08/13 02:44:47;;;;;;;4.43;2.80;;;;;;;16.68;83.48;96018.34;5007445;28;20227;-84
2022/08/13 02:47:15;;;;;;;3.90;2.50;;;;;;;16.68;84.89;96021.09;5000699;28;20227;-84
2022/08/13 02:49:42;;;;;;;4.23;2.50;;;;;;;16.66;84.24;96021.38;5027579;28;20239;-84
2022/08/13 02:52:10;;;;;;;2.23;2.03;;;;;;;16.66;83.72;96017.84;5008896;28;20274;-84
2022/08/13 02:54:42;;;;;;;3.33;2.60;;;;;;;16.65;83.73;96017.03;4996730;28;20234;-84
2022/08/13 02:57:11;;;;;;;3.63;2.50;;;;;;;16.54;84.06;96016.19;5003441;28;20232;-85
2022/08/13 02:59:38;;;;;;;3.10;2.37;;;;;;;16.48;84.66;96013.75;4998369;28;20212;-84
2022/08/13 03:02:09;;;;;;;4.00;2.57;;;;;;;16.47;84.04;96007.50;5010395;28;20277;-84
2022/08/13 03:04:45;;;;;;;2.67;2.40;;;;;;;16.47;83.65;96004.75;5006766;28;20235;-84
2022/08/13 03:07:13;;;;;;;2.53;2.33;;;;;;;16.54;84.20;96016.19;5008844;28;20215;-85
2022/08/13 03:09:40;;;;;;;3.03;2.30;;;;;;;16.48;86.10;95995.50;4999476;28;20206;-85
2022/08/13 03:12:09;;;;;;;3.27;2.30;;;;;;;16.48;86.21;96003.69;5008719;28;20227;-84
2022/08/13 03:14:37;;;;;;;2.60;2.40;;;;;;;16.42;84.82;95996.59;5006032;28;20200;-85
2022/08/13 03:17:05;;;;;;;3.57;2.70;;;;;;;16.43;85.14;95994.69;5009627;28;20246;-85
2022/08/13 03:19:33;;;;;;;2.40;2.10;;;;;;;16.47;84.98;95996.59;5008199;28;20218;-84
2022/08/13 03:22:01;;;;;;;3.00;2.30;;;;;;;16.46;84.86;96000.41;5007900;28;20227;-84
2022/08/13 03:24:28;;;;;;;2.90;2.60;;;;;;;16.50;85.33;95995.22;5009678;28;20215;-84
2022/08/13 03:26:56;;;;;;;2.97;2.50;;;;;;;16.57;84.94;95999.31;5009046;28;20212;-84
2022/08/13 03:29:24;;;;;;;4.13;2.50;;;;;;;16.60;84.48;96004.19;5012825;28;20203;-84
2022/08/13 03:31:51;;;;;;;2.73;2.40;;;;;;;16.60;84.22;96001.44;5003492;28;20296;-84
2022/08/13 03:34:20;;;;;;;3.90;2.87;;;;;;;16.56;84.67;96003.13;5000381;28;20245;-84
2022/08/13 03:36:48;;;;;;;5.20;2.40;;;;;;;16.60;84.44;96012.34;5005410;28;20223;-84
2022/08/13 03:39:15;;;;;;;3.10;2.23;;;;;;;16.59;85.29;96007.16;5003960;28;20287;-84
2022/08/13 03:41:42;;;;;;;2.87;2.60;;;;;;;16.49;86.33;95997.13;5007992;28;20231;-85
2022/08/13 03:44:10;;;;;;;2.90;2.60;;;;;;;16.46;86.67;96003.13;5009819;28;20238;-84
2022/08/13 03:46:37;;;;;;;2.90;2.60;;;;;;;16.37;86.89;96003.97;5023577;28;20254;-84
2022/08/13 03:49:04;;;;;;;4.20;2.50;;;;;;;16.27;88.47;96011.06;5004758;28;20239;-84
2022/08/13 03:51:31;;;;;;;2.53;2.33;;;;;;;16.14;89.98;96005.34;4996978;28;20203;-84
2022/08/13 03:53:59;;;;;;;3.07;2.50;;;;;;;16.13;89.60;96012.72;5008767;28;20208;-84
2022/08/13 03:56:27;;;;;;;2.70;2.50;;;;;;;16.13;89.32;96009.16;5000085;28;20277;-84
2022/08/13 03:58:54;;;;;;;4.47;2.43;;;;;;;16.11;89.43;96014.06;5013694;28;20271;-84
2022/08/13 04:01:22;;;;;;;3.07;2.40;;;;;;;16.08;89.94;96011.88;5007166;28;20227;-85
2022/08/13 04:03:50;;;;;;;3.70;2.47;;;;;;;16.13;90.00;96020.88;4998962;28;20380;-85
2022/08/13 04:06:19;;;;;;;2.50;2.30;;;;;;;16.19;90.79;96025.22;5002008;28;20202;-85
2022/08/13 04:08:48;;;;;;;2.83;2.43;;;;;;;16.07;90.52;96016.53;5002191;28;20204;-85
2022/08/13 04:11:18;;;;;;;3.53;2.50;;;;;;;15.98;91.34;96023.63;5008926;28;20257;-84
2022/08/13 04:13:46;;;;;;;2.83;2.60;;;;;;;15.91;90.88;96022.25;5010988;28;20207;-85
2022/08/13 04:16:15;;;;;;;2.73;2.50;;;;;;;15.88;91.19;96018.97;5005281;28;20214;-84
2022/08/13 04:18:44;;;;;;;4.63;2.40;;;;;;;15.83;91.50;96021.69;5007521;28;20245;-84
2022/08/13 04:21:14;;;;;;;3.27;2.30;;;;;;;15.79;91.79;96020.59;5011866;28;20321;-84
2022/08/13 04:23:43;;;;;;;2.53;2.33;;;;;;;15.77;91.95;96019.22;4999485;28;20207;-85
2022/08/13 04:26:13;;;;;;;2.63;2.43;;;;;;;15.77;92.39;96021.94;5011354;28;20206;-85
2022/08/13 04:28:43;;;;;;;5.67;2.67;;;;;;;15.77;91.84;96022.78;5029333;28;20211;-84
2022/08/13 04:31:11;;;;;;;3.00;2.70;;;;;;;15.83;92.61;96026.31;5008936;28;20234;-84
2022/08/13 04:33:39;;;;;;;2.83;2.50;;;;;;;15.74;92.15;96023.31;5009255;28;20257;-84
2022/08/13 04:36:07;;;;;;;3.10;2.60;;;;;;;15.67;91.73;96022.75;5012006;28;20253;-84
2022/08/13 04:38:35;;;;;;;3.00;2.70;;;;;;;15.71;92.90;96034.75;4995412;28;20203;-84
2022/08/13 04:41:05;;;;;;;3.27;2.67;;;;;;;15.70;93.04;96032.28;5010123;28;20207;-85
2022/08/13 04:43:32;;;;;;;5.13;3.00;;;;;;;15.60;94.05;96024.09;5029075;28;20238;-84
2022/08/13 04:46:01;;;;;;;3.60;2.93;;;;;;;15.61;93.66;96029.28;5009685;28;20203;-85
2022/08/13 04:48:31;;;;;;;2.57;2.17;;;;;;;15.62;92.60;96030.91;5011268;28;20214;-84
2022/08/13 04:50:58;;;;;;;3.60;2.50;;;;;;;15.59;91.85;96023.28;5008099;28;20304;-85
2022/08/13 04:53:28;;;;;;;2.60;2.40;;;;;;;15.69;90.23;96023.31;5009324;28;20223;-84
2022/08/13 04:55:56;;;;;;;3.10;2.70;;;;;;;15.66;91.14;96025.75;5011709;28;20238;-84
2022/08/13 04:58:24;;;;;;;3.40;2.70;;;;;;;15.59;92.33;96030.63;5010119;28;20207;-84
2022/08/13 05:00:51;;;;;;;4.10;2.70;;;;;;;15.60;92.51;96033.09;5010092;28;20218;-84
2022/08/13 05:03:21;;;;;;;3.50;2.60;;;;;;;15.55;93.33;96033.09;5006518;28;20206;-84
2022/08/13 05:05:51;;;;;;;2.90;2.70;;;;;;;15.47;93.47;96031.69;5002859;28;20217;-84
2022/08/13 05:08:20;;;;;;;3.30;2.90;;;;;;;15.44;93.61;96029.50;5025255;28;20641;-85
2022/08/13 05:10:49;;;;;;;5.63;2.97;;;;;;;15.44;93.69;96031.38;5006799;28;20234;-84
2022/08/13 05:13:22;;;;;;;2.87;2.67;;;;;;;15.40;94.23;96041.16;5004707;28;20215;-85
2022/08/13 05:15:49;;;;;;;4.33;3.00;;;;;;;15.45;94.98;96035.75;5009795;28;20302;-84
2022/08/13 05:18:17;;;;;;;4.10;2.67;;;;;;;15.49;93.91;96031.38;5006759;28;20231;-85
2022/08/13 05:20:46;;;;;;;3.30;2.43;;;;;;;15.46;96.27;96023.78;5009460;28;20217;-84
2022/08/13 05:23:13;;;;;;;4.37;2.80;;;;;;;15.38;97.57;96030.56;5002839;28;20250;-84
2022/08/13 05:25:41;;;;;;;5.23;3.07;;;;;;;15.42;96.01;96036.28;5024853;28;20207;-84
2022/08/13 05:28:09;;;;;;;2.87;2.53;;;;;;;15.45;97.11;96033.03;5007968;28;20249;-84
2022/08/13 05:30:38;;;;;;;2.90;2.50;;;;;;;15.49;95.71;96032.22;5010975;28;20264;-84
2022/08/13 05:33:13;;;;;;;3.37;2.63;;;;;;;15.61;93.40;96033.91;5008603;28;20271;-84
2022/08/13 05:35:41;;;;;;;2.63;2.20;;;;;;;15.64;91.52;96023.31;5003235;28;20210;-84
2022/08/13 05:38:10;;;;;;;3.07;2.20;;;;;;;15.63;91.52;96023.56;5009914;28;20211;-84
2022/08/13 05:40:38;;;;;;;4.00;2.50;;;;;;;15.63;91.89;96031.75;5028802;28;20233;-84
2022/08/13 05:43:11;;;;;;;5.57;2.53;;;;;;;15.66;91.76;96020.28;5008950;28;20222;-84
2022/08/13 05:45:39;;;;;;;5.23;2.60;;;;;;;15.57;92.59;96033.63;5000991;28;20258;-85
2022/08/13 05:48:06;;;;;;;3.03;2.73;;;;;;;15.52;93.51;96028.97;4999633;28;20215;-84
2022/08/13 05:50:34;;;;;;;3.80;2.70;;;;;;;15.48;93.05;96014.25;5011601;28;20265;-84
2022/08/13 05:53:08;;;;;;;2.77;2.57;;;;;;;15.54;93.10;96017.03;5012809;28;20230;-85
2022/08/13 05:55:37;;;;;;;4.50;2.43;;;;;;;15.63;93.45;96023.56;5002506;28;20222;-84
2022/08/13 05:58:06;;;;;;;4.47;2.90;;;;;;;15.66;92.53;96002.06;5010227;28;20207;-85
2022/08/13 06:03:26;;;;;;;3.17;2.30;;;;;;;15.83;93.93;96005.34;5011527;28;20222;-84
2022/08/13 06:05:55;;;;;;;3.30;2.37;;;;;;;15.79;91.45;95996.09;4999844;28;20213;-84
2022/08/13 06:08:24;;;;;;;4.93;2.87;;;;;;;15.91;91.93;95992.31;5009702;28;20268;-85
2022/08/13 06:10:52;;;;;;;2.70;2.47;;;;;;;16.00;91.04;96004.25;5007961;28;20302;-84
2022/08/13 06:13:20;;;;;;;6.67;2.80;;;;;;;15.96;89.96;96000.47;5003547;28;20235;-84
2022/08/13 06:15:58;;;;;;;3.60;2.70;;;;;;;15.94;91.98;95992.56;4997647;28;20207;-84
2022/08/13 06:18:30;;;;;;;4.27;2.80;;;;;;;15.92;93.20;95989.28;5018661;28;20219;-84
2022/08/13 06:21:00;;;;;;;3.93;2.67;;;;;;;15.96;93.85;95984.13;5003708;28;20207;-84
2022/08/13 06:23:29;;;;;;;3.43;2.50;;;;;;;15.87;94.29;95990.13;5002822;28;20245;-84
2022/08/13 06:26:00;;;;;;;3.00;2.70;;;;;;;15.79;95.48;96001.53;5006348;28;20203;-84
2022/08/13 06:28:30;;;;;;;3.47;2.43;;;;;;;15.81;95.46;96002.09;5011103;28;20207;-85
2022/08/13 06:31:00;;;;;;;4.30;3.10;;;;;;;15.87;95.38;96006.44;5009258;28;20206;-84
2022/08/13 06:33:28;;;;;;;4.53;3.30;;;;;;;15.78;96.73;96005.34;5029619;28;20209;-84
2022/08/13 06:35:57;;;;;;;4.67;3.00;;;;;;;15.68;96.96;96018.94;5010064;28;20203;-84
2022/08/13 06:38:28;;;;;;;3.07;2.80;;;;;;;15.61;97.51;96017.56;5014162;28;20268;-84
2022/08/13 06:41:00;;;;;;;7.23;2.53;;;;;;;15.59;97.98;96012.41;5029966;28;20210;-84
2022/08/13 06:43:28;;;;;;;3.43;2.73;;;;;;;15.56;97.64;96006.69;5012041;28;20226;-85
2022/08/13 06:45:58;;;;;;;5.03;2.77;;;;;;;15.65;99.61;96010.53;5008702;28;20213;-84
2022/08/13 06:48:25;;;;;;;3.67;2.90;;;;;;;15.71;97.98;96006.72;5008594;28;20207;-84
2022/08/13 06:50:52;;;;;;;5.73;3.07;;;;;;;15.78;97.07;95999.91;4996488;28;20334;-84
2022/08/13 06:53:20;;;;;;;4.77;3.30;;;;;;;15.78;98.19;95999.91;4998449;28;20199;-84
2022/08/13 06:55:52;;;;;;;4.13;3.30;;;;;;;15.82;99.15;95992.81;5009837;28;20208;-84
2022/08/13 06:58:25;;;;;;;4.60;2.70;;;;;;;15.97;99.40;96002.09;5008246;28;20204;-84
2022/08/13 07:00:53;;;;;;;3.00;2.70;;;;;;;15.93;100.00;95998.28;5010312;28;20271;-85
2022/08/13 07:03:25;;;;;;;3.63;3.10;;;;;;;15.81;100.00;95985.75;5009103;28;20293;-84
2022/08/13 07:05:53;;;;;;;3.40;3.10;;;;;;;15.80;100.00;95995.03;5005487;28;20231;-85
2022/08/13 07:08:22;;;;;;;4.30;3.60;;;;;;;15.81;100.00;95998.56;4999654;28;20199;-85
2022/08/13 07:11:21;;;;;;;3.77;3.33;;;;;;;15.84;100.00;95996.09;5009993;28;20233;-85
2022/08/13 07:13:42;;;;;;;3.93;3.03;;;;;;;15.84;100.00;95989.81;5004195;28;20211;-84
2022/08/13 07:16:10;;;;;;;2.67;2.47;;;;;;;15.96;100.00;96003.19;5000669;28;20208;-84
2022/08/13 07:18:37;;;;;;;3.00;2.70;;;;;;;16.03;100.00;95998.28;4999424;28;20228;-85
2022/08/13 07:21:10;;;;;;;2.93;2.73;;;;;;;16.11;100.00;96008.63;5021962;28;20266;-84
2022/08/13 07:23:37;;;;;;;3.03;2.40;;;;;;;15.95;100.00;95996.91;5000687;28;20220;-83
2022/08/13 07:26:06;;;;;;;4.00;2.57;;;;;;;15.85;100.00;95992.28;5003415;28;20215;-84
2022/08/13 07:28:35;;;;;;;5.33;2.80;;;;;;;15.86;100.00;95985.75;5007293;28;20254;-84
2022/08/13 07:31:06;;;;;;;4.70;2.60;;;;;;;15.96;100.00;95989.56;5023225;28;20203;-84
2022/08/13 07:33:35;;;;;;;3.90;3.17;;;;;;;15.83;100.00;95989.00;5007416;28;20247;-85
2022/08/13 07:36:06;;;;;;;4.63;2.97;;;;;;;15.97;100.00;95993.94;5010174;28;20203;-84
2022/08/13 07:38:33;;;;;;;4.30;2.83;;;;;;;16.32;100.00;96003.97;5008619;28;20209;-84
2022/08/13 07:41:03;;;;;;;2.80;2.60;;;;;;;16.74;99.65;95990.81;5006605;28;20272;-85
2022/08/13 07:43:32;;;;;;;2.63;2.43;;;;;;;17.20;97.63;95996.91;5003630;28;20231;-84
2022/08/13 07:46:07;;;;;;;2.80;2.20;;;;;;;17.71;93.04;95996.63;5003332;28;20208;-84
2022/08/13 07:48:36;;;;;;;2.77;2.33;;;;;;;18.13;85.30;95999.56;4996337;28;20234;-84
2022/08/13 07:51:05;;;;;;;3.03;2.00;;;;;;;18.42;83.71;95988.66;5009109;28;20433;-85
2022/08/13 07:53:34;;;;;;;2.90;2.20;;;;;;;18.66;84.06;95985.97;5008143;28;20263;-85
2022/08/13 07:56:03;;;;;;;3.70;2.50;;;;;;;18.94;83.45;95991.69;5004968;28;20250;-84
2022/08/13 07:58:33;;;;;;;3.67;2.20;;;;;;;19.02;81.39;95989.13;5005038;28;20309;-84
2022/08/13 08:01:01;;;;;;;2.53;2.30;;;;;;;19.08;80.01;95982.47;5007587;28;20212;-84
2022/08/13 08:03:32;;;;;;;4.13;2.50;;;;;;;19.31;79.34;95982.75;5007885;28;20232;-84
2022/08/13 08:06:03;;;;;;;6.97;3.27;;;;;;;19.67;76.12;95985.81;5013519;28;20294;-84
2022/08/13 08:08:32;;;;;;;4.03;2.47;;;;;;;20.04;74.16;95983.03;4995602;28;20231;-85
2022/08/13 08:11:01;;;;;;;5.10;2.40;;;;;;;20.39;70.78;95973.44;5025735;28;20219;-83
2022/08/13 08:13:28;;;;;;;2.97;2.60;;;;;;;20.90;68.28;95975.22;5004550;28;20276;-84
2022/08/13 08:15:56;;;;;;;3.90;2.50;;;;;;;21.34;63.68;95986.41;5004365;28;20362;-84
2022/08/13 08:18:25;;;;;;;4.70;2.33;;;;;;;21.68;59.85;95994.16;5005774;28;20207;-85
2022/08/13 08:21:07;;;;;;;2.83;2.55;;;;;;;21.95;59.09;95982.25;5007721;28;20211;-84
2022/08/13 08:23:36;;;;;;;5.22;2.70;;;;;;;22.07;60.86;95984.50;5020569;28;20301;-84
2022/08/13 08:26:07;;;;;;;4.25;2.65;;;;;;;22.32;60.09;95986.59;5007579;28;20214;-84
2022/08/13 08:28:35;;;;;;;3.10;2.80;;;;;;;22.47;60.50;95982.66;5016067;28;20204;-84
2022/08/13 08:31:06;;;;;;;4.13;3.67;;;;;;;22.63;59.73;95983.88;5003621;28;20218;-84
2022/08/13 08:33:34;;;;;;;5.25;2.67;;;;;;;22.85;57.47;95988.56;4997047;28;20216;-84
2022/08/13 08:36:04;;;;;;;5.55;2.78;;;;;;;22.78;57.87;95979.94;5003470;28;20203;-83
2022/08/13 08:44:05;;;;;;;2.63;2.42;;;;;;;22.99;57.30;95970.78;4996202;28;20354;-84
2022/08/13 08:46:33;;;;;;;5.10;2.60;;;;;;;22.73;57.09;95969.03;5005708;28;20205;-83
2022/08/13 08:49:04;;;;;;;3.38;2.80;;;;;;;22.85;57.71;95972.84;5009531;28;20204;-84
2022/08/13 08:51:34;;;;;;;6.95;3.42;;;;;;;22.56;58.53;95969.75;5006913;28;20195;-85
2022/08/13 08:54:02;;;;;;;5.20;3.33;;;;;;;22.57;58.83;95966.69;5008908;28;20206;-84
2022/08/13 08:56:34;;;;;;;4.28;2.50;;;;;;;22.72;59.29;95973.72;5012023;28;20226;-84
2022/08/13 08:59:02;;;;;;;3.47;2.55;;;;;;;23.05;58.29;95971.47;5025271;28;20209;-84
2022/08/13 09:01:35;;;;;;;3.55;2.70;;;;;;;23.10;56.98;95974.06;5007113;28;20215;-84
2022/08/13 09:04:05;;;;;;;3.53;2.50;;;;;;;23.16;57.03;95978.31;4996973;28;20339;-83
2022/08/13 09:06:34;;;;;;;2.45;2.25;;;;;;;23.22;58.05;95976.22;4995952;28;20211;-84
2022/08/13 09:09:03;;;;;;;3.78;2.40;;;;;;;23.40;54.92;95978.69;4999150;28;20217;-83
2022/08/13 09:11:34;;;;;;;2.83;2.40;;;;;;;23.58;56.44;95978.75;5011750;28;20230;-84
2022/08/13 09:14:07;;;;;;;3.53;2.58;;;;;;;23.74;54.57;95989.00;5005785;28;20211;-83
2022/08/13 09:16:36;;;;;;;2.50;2.30;;;;;;;23.85;53.20;95972.94;5006247;28;20211;-84
2022/08/13 09:19:04;;;;;;;3.25;2.50;;;;;;;23.99;53.34;95968.06;5010830;28;20194;-83
2022/08/13 09:21:31;;;;;;;3.30;2.50;;;;;;;23.99;51.78;95967.25;5001753;28;20214;-83
2022/08/13 09:24:01;;;;;;;3.30;2.60;;;;;;;23.96;52.20;95971.50;5006601;28;20223;-84
2022/08/13 09:26:28;;;;;;;3.80;2.40;;;;;;;23.96;52.10;95967.94;5008309;28;20215;-84
2022/08/13 09:28:58;;;;;;;2.40;2.20;;;;;;;23.98;51.75;95969.22;5009591;28;20222;-84
2022/08/13 09:31:25;;;;;;;2.60;2.40;;;;;;;24.17;51.92;95962.53;5006325;28;20304;-83
2022/08/13 09:33:53;;;;;;;4.47;2.40;;;;;;;24.36;51.37;95968.56;5005342;28;20334;-83
2022/08/13 09:36:25;;;;;;;3.60;2.33;;;;;;;24.45;49.32;95963.84;5003972;28;20214;-84
2022/08/13 09:38:53;;;;;;;4.75;2.70;;;;;;;24.54;51.82;95958.28;4995783;28;20218;-84
2022/08/13 09:41:27;;;;;;;4.20;2.70;;;;;;;24.59;50.77;95964.44;5004164;28;20230;-83
2022/08/13 09:43:57;;;;;;;2.53;2.30;;;;;;;24.66;48.88;95953.72;5010971;28;20242;-83
2022/08/13 09:46:24;;;;;;;3.58;2.35;;;;;;;24.69;52.23;95958.56;5005265;28;20264;-83
2022/08/13 09:48:54;;;;;;;4.25;2.25;;;;;;;24.76;49.89;95955.28;4998109;28;20214;-83
2022/08/13 09:51:24;;;;;;;3.03;2.30;;;;;;;24.77;49.63;95960.50;5010956;28;20214;-83
2022/08/13 09:53:52;;;;;;;4.75;3.38;;;;;;;24.68;48.66;95956.13;5005676;28;20219;-83
2022/08/13 09:56:22;;;;;;;3.85;2.45;;;;;;;24.55;50.72;95957.97;5009188;28;20265;-83
2022/08/13 09:58:52;;;;;;;3.28;2.13;;;;;;;24.84;50.91;95960.78;5004847;28;20211;-83
2022/08/13 10:01:19;;;;;;;2.70;2.50;;;;;;;25.15;49.26;95948.69;5003463;28;20221;-85
2022/08/13 10:03:48;;;;;;;3.25;2.00;;;;;;;25.26;47.70;95955.44;4995617;28;20231;-83
2022/08/13 10:06:18;;;;;;;4.03;2.40;;;;;;;25.33;50.16;95952.97;5003404;28;20285;-84
2022/08/13 10:08:47;;;;;;;3.42;2.50;;;;;;;25.32;52.24;95962.41;5005987;28;20231;-83
2022/08/13 10:11:15;;;;;;;3.00;2.28;;;;;;;25.44;50.06;95954.19;5001440;28;20223;-83
2022/08/13 10:13:42;;;;;;;4.07;2.40;;;;;;;25.56;48.54;95953.47;5004736;28;20204;-83
2022/08/13 10:16:11;;;;;;;2.72;2.50;;;;;;;25.57;49.54;95953.13;5019814;28;20213;-83
2022/08/13 10:18:38;;;;;;;2.85;2.58;;;;;;;25.48;49.41;95943.28;5000673;28;20199;-83
2022/08/13 10:21:06;;;;;;;2.65;2.30;;;;;;;25.55;48.09;95949.91;5006344;28;20214;-83
2022/08/13 10:23:33;;;;;;;3.22;2.50;;;;;;;25.76;46.52;95949.13;5006103;28;20250;-84
2022/08/13 10:26:01;;;;;;;3.25;2.53;;;;;;;25.97;48.17;95952.69;5007227;28;20206;-84
2022/08/13 10:28:31;;;;;;;2.63;2.40;;;;;;;25.90;47.00;95950.47;5002709;28;20298;-83
2022/08/13 10:30:58;;;;;;;5.20;2.50;;;;;;;25.89;48.86;95945.28;4999380;28;20234;-87
2022/08/13 10:33:27;;;;;;;2.75;2.50;;;;;;;25.91;49.59;95951.28;5005341;28;20322;-88
2022/08/13 10:35:55;;;;;;;2.67;2.38;;;;;;;25.99;51.86;95939.34;5010203;28;20309;-88
2022/08/13 10:38:25;;;;;;;4.82;2.70;;;;;;;25.92;50.08;95944.63;5010038;28;20210;-87
2022/08/13 10:40:52;;;;;;;3.53;2.50;;;;;;;26.06;50.95;95939.59;5007954;28;20206;-87
2022/08/13 10:43:19;;;;;;;4.07;2.63;;;;;;;26.10;48.71;95931.44;5000816;28;20230;-87
2022/08/13 10:45:47;;;;;;;3.22;2.55;;;;;;;26.12;50.07;95934.66;5011682;28;20227;-88
2022/08/13 10:48:14;;;;;;;2.95;2.40;;;;;;;26.22;49.27;95934.25;5007563;28;20314;-88
2022/08/13 10:50:43;;;;;;;2.58;2.38;;;;;;;26.26;49.40;95929.69;5006257;28;20235;-87
2022/08/13 10:53:55;;;;;;;3.92;2.53;;;;;;;26.46;49.30;95931.56;5025076;28;20237;-87
2022/08/13 10:55:57;;;;;;;2.92;2.40;;;;;;;26.54;48.81;95932.66;5000019;28;20219;-87
2022/08/13 10:58:24;;;;;;;2.95;2.50;;;;;;;26.60;48.14;95928.50;5000973;28;20227;-87
2022/08/13 11:00:51;;;;;;;6.85;2.40;;;;;;;26.64;47.27;95924.69;4997977;28;20287;-87
2022/08/13 11:03:18;;;;;;;3.17;2.47;;;;;;;26.66;47.81;95918.81;5008225;28;20241;-88
2022/08/13 11:05:47;;;;;;;3.25;2.60;;;;;;;26.80;47.39;95932.34;5011326;28;20276;-88
2022/08/13 11:08:15;;;;;;;3.65;2.60;;;;;;;26.66;46.48;95932.69;5029657;28;20223;-87
2022/08/13 11:10:42;;;;;;;4.35;2.60;;;;;;;26.62;47.94;95935.34;5011423;28;20274;-87
2022/08/13 11:13:09;;;;;;;2.78;2.58;;;;;;;26.64;48.61;95927.47;5011066;28;20200;-87
2022/08/13 11:15:36;;;;;;;2.70;2.50;;;;;;;26.72;48.76;95920.22;5012714;28;20268;-87
2022/08/13 11:18:06;;;;;;;2.72;2.53;;;;;;;26.82;48.25;95927.28;5010198;28;20213;-87
2022/08/13 11:20:40;;;;;;;2.88;2.63;;;;;;;26.82;47.54;95933.63;5008762;28;20212;-88
2022/08/13 11:23:09;;;;;;;4.03;2.53;;;;;;;26.85;47.59;95932.94;5004346;28;20214;-87
2022/08/13 11:25:36;;;;;;;3.38;2.30;;;;;;;26.79;47.60;95926.03;5006080;28;20290;-87
2022/08/13 11:28:03;;;;;;;2.67;2.47;;;;;;;26.89;48.40;95931.09;5009883;28;20308;-88
2022/08/13 11:30:31;;;;;;;2.97;2.50;;;;;;;26.75;47.27;95922.31;5008681;28;20195;-87
2022/08/13 11:32:58;;;;;;;4.43;2.47;;;;;;;26.86;49.30;95912.41;5013354;28;20203;-88
2022/08/13 11:35:25;;;;;;;4.95;2.40;;;;;;;27.08;48.61;95920.28;5014217;28;20550;-88
2022/08/13 11:37:52;;;;;;;4.95;2.70;;;;;;;27.13;48.54;95918.44;5012445;28;20294;-88
2022/08/13 11:40:21;;;;;;;2.67;2.47;;;;;;;27.25;47.92;95916.47;5010307;28;20218;-87
2022/08/13 11:42:48;;;;;;;2.70;2.30;;;;;;;27.29;47.57;95913.81;5001015;28;20207;-87
2022/08/13 11:45:15;;;;;;;2.78;2.58;;;;;;;27.32;46.86;95907.56;5013793;28;20218;-87
2022/08/13 11:47:42;;;;;;;3.22;2.70;;;;;;;27.37;46.41;95905.38;5010597;28;20196;-88
2022/08/13 11:50:10;;;;;;;2.50;2.30;;;;;;;27.55;46.02;95905.16;5011713;28;20234;-87
2022/08/13 11:52:37;;;;;;;2.40;2.20;;;;;;;27.32;45.03;95905.59;5011207;28;20444;-88
2022/08/13 11:55:05;;;;;;;3.80;2.50;;;;;;;27.40;44.24;95912.16;5010597;28;20299;-87
2022/08/13 11:57:34;;;;;;;2.50;2.25;;;;;;;27.41;45.22;95908.25;5012504;28;20215;-87
2022/08/13 12:00:01;;;;;;;2.53;2.33;;;;;;;27.60;45.96;95907.66;5029861;28;20203;-88
2022/08/13 12:02:31;;;;;;;2.75;2.50;;;;;;;27.73;46.95;95906.50;5029477;28;20202;-88